createdAt,value
2022-08-26T00:01:08.457Z,44.74
2022-08-26T00:03:12.824Z,44.20
2022-08-26T00:05:16.601Z,44.09
2022-08-26T00:07:19.388Z,43.74
2022-08-26T00:09:22.986Z,43.32
2022-08-26T00:11:28.251Z,43.47
2022-08-26T00:13:31.527Z,43.18
2022-08-26T00:15:34.295Z,42.63
2022-08-26T00:17:37.106Z,42.35
2022-08-26T00:19:51.862Z,42.29
2022-08-26T00:21:56.182Z,42.31
2022-08-26T00:23:58.743Z,42.54
2022-08-26T00:26:03.620Z,42.53
2022-08-26T00:28:07.275Z,42.32
2022-08-26T00:30:14.942Z,42.51
2022-08-26T00:32:17.666Z,42.71
2022-08-26T00:34:20.335Z,42.90
2022-08-26T00:36:22.986Z,42.43
2022-08-26T00:38:26.272Z,42.24
2022-08-26T00:40:35.582Z,42.11
2022-08-26T00:42:38.526Z,42.17
2022-08-26T00:44:48.693Z,42.17
2022-08-26T00:47:01.139Z,41.73
2022-08-26T00:49:13.846Z,41.76
2022-08-26T00:51:20.163Z,41.64
2022-08-26T00:53:27.966Z,42.23
2022-08-26T00:55:41.170Z,43.58
2022-08-26T00:57:44.894Z,44.98
2022-08-26T00:59:52.968Z,48.41
2022-08-26T01:01:57.059Z,49.30
2022-08-26T01:04:00.311Z,50.04
2022-08-26T01:06:04.068Z,50.53
2022-08-26T01:08:08.368Z,51.99
2022-08-26T01:10:15.587Z,52.30
2022-08-26T01:12:22.008Z,51.51
2022-08-26T01:14:29.678Z,50.37
2022-08-26T01:16:33.547Z,49.21
2022-08-26T01:18:36.499Z,47.93
2022-08-26T01:20:58.325Z,46.79
2022-08-26T01:23:07.111Z,46.40
2022-08-26T01:25:12.182Z,46.04
2022-08-26T01:27:18.522Z,45.75
2022-08-26T01:29:21.289Z,45.49
2022-08-26T01:31:26.585Z,44.71
2022-08-26T01:33:47.678Z,44.81
2022-08-26T01:35:51.440Z,44.91
2022-08-26T01:37:55.404Z,44.76
2022-08-26T01:39:58.160Z,45.00
2022-08-26T01:42:03.512Z,45.12
2022-08-26T01:44:09.792Z,44.90
2022-08-26T01:46:14.707Z,44.96
2022-08-26T01:48:23.354Z,44.98
2022-08-26T01:50:30.702Z,45.12
2022-08-26T01:52:38.664Z,45.09
2022-08-26T01:54:41.227Z,45.10
2022-08-26T01:56:49.823Z,44.88
2022-08-26T01:58:58.411Z,44.93
2022-08-26T02:01:01.304Z,44.81
2022-08-26T02:03:19.110Z,44.66
2022-08-26T02:05:22.324Z,44.45
2022-08-26T02:07:26.699Z,44.50
2022-08-26T02:09:29.677Z,44.61
2022-08-26T02:11:34.343Z,44.80
2022-08-26T02:13:43.979Z,45.78
2022-08-26T02:15:47.806Z,46.29
2022-08-26T02:17:52.683Z,46.47
2022-08-26T02:19:56.539Z,46.88
2022-08-26T02:22:03.646Z,47.43
2022-08-26T02:24:15.284Z,50.36
2022-08-26T02:26:19.594Z,50.66
2022-08-26T02:28:22.247Z,52.57
2022-08-26T02:30:32.220Z,53.52
2022-08-26T02:32:35.257Z,58.51
2022-08-26T02:34:37.894Z,61.29
2022-08-26T02:36:41.187Z,60.84
2022-08-26T02:38:43.775Z,60.91
2022-08-26T02:40:48.815Z,60.91
2022-08-26T02:42:55.976Z,60.04
2022-08-26T02:44:59.957Z,58.21
2022-08-26T02:47:03.516Z,56.51
2022-08-26T02:49:07.833Z,54.99
2022-08-26T02:51:11.567Z,54.43
2022-08-26T02:53:16.440Z,54.96
2022-08-26T02:55:27.041Z,56.49
2022-08-26T02:57:29.531Z,59.76
2022-08-26T02:59:32.747Z,60.91
2022-08-26T03:01:36.697Z,60.23
2022-08-26T03:03:39.239Z,60.83
2022-08-26T03:05:42.746Z,61.17
2022-08-26T03:07:46.027Z,62.19
2022-08-26T03:09:48.633Z,62.59
2022-08-26T03:11:55.681Z,61.95
2022-08-26T03:13:59.210Z,62.00
2022-08-26T03:16:05.409Z,61.70
2022-08-26T03:18:08.047Z,61.84
2022-08-26T03:20:11.548Z,60.74
2022-08-26T03:22:16.238Z,60.33
2022-08-26T03:24:18.904Z,59.78
2022-08-26T03:26:21.548Z,59.34
2022-08-26T03:28:24.262Z,59.28
2022-08-26T03:30:44.873Z,59.61
2022-08-26T03:32:48.232Z,57.65
2022-08-26T03:34:50.940Z,57.93
2022-08-26T03:36:54.420Z,56.73
2022-08-26T03:38:57.928Z,57.36
2022-08-26T03:41:01.209Z,57.13
2022-08-26T03:43:06.402Z,56.92
2022-08-26T03:45:14.699Z,56.85
2022-08-26T03:47:17.942Z,57.49
2022-08-26T03:49:20.711Z,58.11
2022-08-26T03:51:23.623Z,57.46
2022-08-26T03:53:27.155Z,56.19
2022-08-26T03:55:34.182Z,55.67
2022-08-26T03:57:36.957Z,54.85
2022-08-26T03:59:41.300Z,55.01
2022-08-26T04:01:44.037Z,55.17
2022-08-26T04:04:00.491Z,54.80
2022-08-26T04:06:04.098Z,55.52
2022-08-26T04:08:07.429Z,55.34
2022-08-26T04:10:12.106Z,55.32
2022-08-26T04:12:15.791Z,55.79
2022-08-26T04:14:22.413Z,55.90
2022-08-26T04:16:26.069Z,55.94
2022-08-26T04:18:33.208Z,56.30
2022-08-26T04:20:39.983Z,55.86
2022-08-26T04:22:42.570Z,55.50
2022-08-26T04:24:46.691Z,55.97
2022-08-26T04:26:50.499Z,55.75
2022-08-26T04:28:55.079Z,55.83
2022-08-26T04:30:58.036Z,55.04
2022-08-26T04:33:00.740Z,54.28
2022-08-26T04:35:05.122Z,53.90
2022-08-26T04:37:09.701Z,53.07
2022-08-26T04:39:16.792Z,50.65
2022-08-26T04:41:21.869Z,49.91
2022-08-26T04:43:30.744Z,49.43
2022-08-26T04:45:40.709Z,48.39
2022-08-26T04:47:43.339Z,46.44
2022-08-26T04:49:46.073Z,47.43
2022-08-26T04:51:52.954Z,46.44
2022-08-26T04:53:57.381Z,45.61
2022-08-26T04:56:00.111Z,44.90
2022-08-26T04:58:02.869Z,45.53
2022-08-26T05:00:09.001Z,45.61
2022-08-26T05:02:12.050Z,45.17
2022-08-26T05:04:16.267Z,43.57
2022-08-26T05:06:22.022Z,42.74
2022-08-26T05:08:25.089Z,42.41
2022-08-26T05:10:29.179Z,42.91
2022-08-26T05:12:32.025Z,41.28
2022-08-26T05:14:34.539Z,40.26
2022-08-26T05:16:40.323Z,39.40
2022-08-26T05:18:45.122Z,39.79
2022-08-26T05:20:54.629Z,39.87
2022-08-26T05:23:00.835Z,39.37
2022-08-26T05:25:03.546Z,39.70
2022-08-26T05:27:07.425Z,37.90
2022-08-26T05:29:14.440Z,37.66
2022-08-26T05:31:24.404Z,38.39
2022-08-26T05:33:27.130Z,39.18
2022-08-26T05:35:32.230Z,39.23
2022-08-26T05:37:38.039Z,38.24
2022-08-26T05:39:41.312Z,39.17
2022-08-26T05:41:46.155Z,38.57
2022-08-26T05:43:48.723Z,38.36
2022-08-26T05:45:51.584Z,39.09
2022-08-26T05:47:54.482Z,39.10
2022-08-26T05:49:57.124Z,39.14
2022-08-26T05:51:59.744Z,39.43
2022-08-26T05:54:03.742Z,38.34
2022-08-26T05:56:08.608Z,39.81
2022-08-26T05:58:12.608Z,39.53
2022-08-26T06:00:16.306Z,39.37
2022-08-26T06:02:19.409Z,38.83
2022-08-26T06:04:28.549Z,39.24
2022-08-26T06:06:35.703Z,39.35
2022-08-26T06:08:38.362Z,39.78
2022-08-26T06:11:05.989Z,38.89
2022-08-26T06:13:11.828Z,37.71
2022-08-26T06:15:15.848Z,42.21
2022-08-26T06:17:18.579Z,41.04
2022-08-26T06:19:22.100Z,43.29
2022-08-26T06:21:30.493Z,43.32
2022-08-26T06:23:51.978Z,40.89
2022-08-26T06:25:54.754Z,42.62
2022-08-26T06:27:57.395Z,43.44
2022-08-26T06:29:59.991Z,42.39
2022-08-26T06:32:03.829Z,40.92
2022-08-26T06:34:10.530Z,39.42
2022-08-26T06:36:22.993Z,38.85
2022-08-26T06:38:26.164Z,39.29
2022-08-26T06:40:29.075Z,39.08
2022-08-26T06:42:33.236Z,38.85
2022-08-26T06:44:36.595Z,38.75
2022-08-26T06:46:40.268Z,38.50
2022-08-26T06:48:43.958Z,38.37
2022-08-26T06:50:47.742Z,39.07
2022-08-26T06:52:54.016Z,36.99
2022-08-26T06:54:58.836Z,36.36
2022-08-26T06:57:01.574Z,36.97
2022-08-26T06:59:04.865Z,35.88
2022-08-26T07:01:25.496Z,34.70
2022-08-26T07:03:28.389Z,34.88
2022-08-26T07:05:32.492Z,34.19
2022-08-26T07:07:35.665Z,35.47
2022-08-26T07:09:39.192Z,35.32
2022-08-26T07:11:42.780Z,34.93
2022-08-26T07:13:50.881Z,34.18
2022-08-26T07:15:58.384Z,33.09
2022-08-26T07:18:09.688Z,33.43
2022-08-26T07:20:16.222Z,33.14
2022-08-26T07:22:20.186Z,32.40
2022-08-26T07:24:23.827Z,32.69
2022-08-26T07:26:31.864Z,32.07
2022-08-26T07:28:35.023Z,32.20
2022-08-26T07:30:41.372Z,34.60
2022-08-26T07:32:44.490Z,33.73
2022-08-26T07:34:47.161Z,31.93
2022-08-26T07:36:51.725Z,31.69
2022-08-26T07:38:55.265Z,32.12
2022-08-26T07:40:57.829Z,32.11
2022-08-26T07:43:01.121Z,32.55
2022-08-26T07:45:05.243Z,32.55
2022-08-26T07:47:10.065Z,32.18
2022-08-26T07:49:28.091Z,33.37
2022-08-26T07:51:31.741Z,32.50
2022-08-26T07:53:35.201Z,32.29
2022-08-26T07:55:38.527Z,32.94
2022-08-26T07:57:42.391Z,32.55
2022-08-26T07:59:44.989Z,32.89
2022-08-26T08:01:48.510Z,32.89
2022-08-26T08:03:53.485Z,33.31
2022-08-26T08:05:56.917Z,35.61
2022-08-26T08:08:27.246Z,36.94
2022-08-26T08:10:26.693Z,37.95
2022-08-26T08:12:29.365Z,37.80
2022-08-26T08:14:31.958Z,37.09
2022-08-26T08:16:36.333Z,37.31
2022-08-26T08:18:40.856Z,36.29
2022-08-26T08:20:47.733Z,34.87
2022-08-26T08:23:07.273Z,34.23
2022-08-26T08:25:10.661Z,33.81
2022-08-26T08:27:14.072Z,33.61
2022-08-26T08:29:16.626Z,33.91
2022-08-26T08:31:52.122Z,34.05
2022-08-26T08:33:48.849Z,33.69
2022-08-26T08:35:55.263Z,33.90
2022-08-26T08:37:58.121Z,33.52
2022-08-26T08:40:00.884Z,33.52
2022-08-26T08:42:06.667Z,33.91
2022-08-26T08:44:15.701Z,34.75
2022-08-26T08:46:22.932Z,33.88
2022-08-26T08:48:31.033Z,33.86
2022-08-26T08:50:41.287Z,33.61
2022-08-26T08:52:50.209Z,33.65
2022-08-26T08:54:54.027Z,33.89
2022-08-26T08:57:04.010Z,33.32
2022-08-26T08:59:51.019Z,33.35
2022-08-26T09:02:15.361Z,33.40
2022-08-26T09:04:30.178Z,33.52
2022-08-26T09:06:32.894Z,33.56
2022-08-26T09:08:37.109Z,33.25
2022-08-26T09:10:49.881Z,33.26
2022-08-26T09:12:53.033Z,31.46
2022-08-26T09:15:03.338Z,33.79
2022-08-26T09:17:40.372Z,33.01
2022-08-26T09:19:54.650Z,30.05
2022-08-26T09:21:59.175Z,31.41
2022-08-26T09:24:01.834Z,30.70
2022-08-26T09:26:29.334Z,30.77
2022-08-26T09:28:33.457Z,31.13
2022-08-26T09:30:36.598Z,30.83
2022-08-26T09:32:39.352Z,30.68
2022-08-26T09:35:00.288Z,29.85
2022-08-26T09:37:04.690Z,30.13
2022-08-26T09:39:28.216Z,30.73
2022-08-26T09:41:34.131Z,31.06
2022-08-26T09:43:37.104Z,30.76
2022-08-26T09:45:50.138Z,30.14
2022-08-26T09:47:57.254Z,29.57
2022-08-26T09:50:29.268Z,30.24
2022-08-26T09:52:32.111Z,29.11
2022-08-26T09:54:35.355Z,28.16
2022-08-26T09:56:39.396Z,28.75
2022-08-26T09:58:45.077Z,27.66
2022-08-26T10:00:56.760Z,25.72
2022-08-26T10:03:01.742Z,25.89
2022-08-26T10:05:09.645Z,27.02
2022-08-26T10:07:13.399Z,28.15
2022-08-26T10:09:18.942Z,29.13
2022-08-26T10:11:39.937Z,27.90
2022-08-26T10:13:51.103Z,26.56
2022-08-26T10:16:01.941Z,25.93
2022-08-26T10:18:13.372Z,27.08
2022-08-26T10:20:23.435Z,26.33
2022-08-26T10:22:44.410Z,25.19
2022-08-26T10:24:56.429Z,25.36
2022-08-26T10:27:14.598Z,24.40
2022-08-26T10:29:23.489Z,24.47
2022-08-26T10:31:40.095Z,24.33
2022-08-26T10:33:43.363Z,25.15
2022-08-26T10:35:53.702Z,23.48
2022-08-26T10:38:01.892Z,23.32
2022-08-26T10:40:14.645Z,23.73
2022-08-26T10:42:30.433Z,23.46
2022-08-26T10:44:37.649Z,22.88
2022-08-26T10:47:12.984Z,21.64
2022-08-26T10:49:18.196Z,22.58
2022-08-26T10:51:29.790Z,22.35
2022-08-26T10:53:56.742Z,22.48
2022-08-26T10:56:18.694Z,22.36
2022-08-26T10:59:12.257Z,21.28
2022-08-26T11:01:47.032Z,20.70
2022-08-26T11:04:22.771Z,21.31
2022-08-26T11:06:30.705Z,20.94
2022-08-26T11:08:33.535Z,21.38
2022-08-26T11:10:38.669Z,21.42
2022-08-26T11:12:42.036Z,21.93
2022-08-26T11:14:53.425Z,21.77
2022-08-26T11:17:00.420Z,21.97
2022-08-26T11:19:04.050Z,21.99
2022-08-26T11:21:51.456Z,22.32
2022-08-26T11:23:53.989Z,22.03
2022-08-26T11:25:57.472Z,21.77
2022-08-26T11:28:00.933Z,21.95
2022-08-26T11:30:19.732Z,21.54
2022-08-26T11:32:48.786Z,21.55
2022-08-26T11:34:56.374Z,21.94
2022-08-26T11:37:01.633Z,22.25
2022-08-26T11:39:36.817Z,22.50
2022-08-26T11:41:46.550Z,21.82
2022-08-26T11:43:52.347Z,22.57
2022-08-26T11:46:07.338Z,22.07
2022-08-26T11:48:31.305Z,22.27
2022-08-26T11:50:34.249Z,22.72
2022-08-26T11:52:37.491Z,22.45
2022-08-26T11:54:40.318Z,22.57
2022-08-26T11:56:48.868Z,21.65
2022-08-26T11:58:56.603Z,22.46
2022-08-26T12:01:09.908Z,21.77
2022-08-26T12:03:21.542Z,21.75
2022-08-26T12:05:31.156Z,21.40
2022-08-26T12:07:34.288Z,21.35
2022-08-26T12:09:50.383Z,21.07
2022-08-26T12:11:57.998Z,21.14
2022-08-26T12:14:07.442Z,21.13
2022-08-26T12:16:10.648Z,21.66
2022-08-26T12:18:29.291Z,21.28
2022-08-26T12:20:48.802Z,20.78
2022-08-26T12:22:52.812Z,19.73
2022-08-26T12:25:05.382Z,18.92
2022-08-26T12:27:19.055Z,19.22
2022-08-26T12:29:28.368Z,18.86
2022-08-26T12:31:38.084Z,18.71
2022-08-26T12:33:41.190Z,18.54
2022-08-26T12:35:44.652Z,18.32
2022-08-26T12:37:51.593Z,18.04
2022-08-26T12:39:54.639Z,18.23
2022-08-26T12:42:05.844Z,18.43
2022-08-26T12:44:08.726Z,18.35
2022-08-26T12:46:18.729Z,17.56
2022-08-26T12:48:30.722Z,17.23
2022-08-26T12:50:38.161Z,17.88
2022-08-26T12:52:51.942Z,16.31
2022-08-26T12:55:00.433Z,16.76
2022-08-26T12:57:10.962Z,17.08
2022-08-26T12:59:24.085Z,17.16
2022-08-26T13:01:26.900Z,16.29
2022-08-26T13:03:38.588Z,16.76
2022-08-26T13:05:41.567Z,16.91
2022-08-26T13:07:44.256Z,16.48
2022-08-26T13:09:47.233Z,15.94
2022-08-26T13:11:50.025Z,16.41
2022-08-26T13:14:08.215Z,16.78
2022-08-26T13:16:12.257Z,16.25
2022-08-26T13:18:14.916Z,16.39
2022-08-26T13:20:17.543Z,16.46
2022-08-26T13:22:24.477Z,16.84
2022-08-26T13:24:34.020Z,16.73
2022-08-26T13:26:36.617Z,17.11
2022-08-26T13:28:39.401Z,17.25
2022-08-26T13:30:46.162Z,17.18
2022-08-26T13:32:49.190Z,16.72
2022-08-26T13:34:55.407Z,16.98
2022-08-26T13:36:58.626Z,17.18
2022-08-26T13:39:01.270Z,16.92
2022-08-26T13:41:05.052Z,17.41
2022-08-26T13:43:07.778Z,17.14
2022-08-26T13:45:11.351Z,17.46
2022-08-26T13:47:14.642Z,17.31
2022-08-26T13:49:17.380Z,16.64
2022-08-26T13:51:22.641Z,17.94
2022-08-26T13:53:25.647Z,17.63
2022-08-26T13:55:28.813Z,17.25
2022-08-26T13:57:31.491Z,16.82
2022-08-26T13:59:34.176Z,17.00
2022-08-26T14:01:37.478Z,17.96
2022-08-26T14:03:40.270Z,17.04
2022-08-26T14:05:44.846Z,17.40
2022-08-26T14:07:47.741Z,18.14
2022-08-26T14:09:50.606Z,17.53
2022-08-26T14:11:54.449Z,17.95
2022-08-26T14:13:57.579Z,17.76
2022-08-26T14:16:01.811Z,18.16
2022-08-26T14:18:07.794Z,17.88
2022-08-26T14:20:18.668Z,18.19
2022-08-26T14:22:22.776Z,17.62
2022-08-26T14:24:25.429Z,17.48
2022-08-26T14:26:29.948Z,17.46
2022-08-26T14:28:33.056Z,17.47
2022-08-26T14:30:39.413Z,17.80
2022-08-26T14:32:45.883Z,18.09
2022-08-26T14:34:48.739Z,17.93
2022-08-26T14:36:51.432Z,18.77
2022-08-26T14:38:55.861Z,17.82
2022-08-26T14:40:58.708Z,17.46
2022-08-26T14:43:01.736Z,17.80
2022-08-26T14:45:07.675Z,17.63
2022-08-26T14:47:11.563Z,17.90
2022-08-26T14:49:16.383Z,18.70
2022-08-26T14:51:21.729Z,19.51
2022-08-26T14:53:44.230Z,18.95
2022-08-26T14:55:47.274Z,18.22
2022-08-26T14:57:50.067Z,18.12
2022-08-26T14:59:52.758Z,18.43
2022-08-26T15:01:56.570Z,18.89
2022-08-26T15:04:01.528Z,18.96
2022-08-26T15:06:05.597Z,19.31
2022-08-26T15:08:11.151Z,19.81
2022-08-26T15:10:16.329Z,20.63
2022-08-26T15:12:19.009Z,22.02
2022-08-26T15:14:22.367Z,24.20
2022-08-26T15:16:25.565Z,22.61
2022-08-26T15:18:28.355Z,23.90
2022-08-26T15:22:42.566Z,24.01
2022-08-26T15:24:46.013Z,24.93
2022-08-26T15:26:49.068Z,23.65
2022-08-26T15:28:51.973Z,22.76
2022-08-26T15:30:54.982Z,22.72
2022-08-26T15:32:57.674Z,21.87
2022-08-26T15:35:00.417Z,22.40
2022-08-26T15:37:03.201Z,21.96
2022-08-26T15:39:08.141Z,22.16
2022-08-26T15:41:12.608Z,23.03
2022-08-26T15:43:28.394Z,22.57
2022-08-26T15:45:34.834Z,22.84
2022-08-26T15:47:46.624Z,23.23
2022-08-26T15:50:00.394Z,25.42
2022-08-26T15:52:05.324Z,25.39
2022-08-26T15:54:10.338Z,26.36
2022-08-26T15:56:13.376Z,26.27
2022-08-26T15:58:16.391Z,27.41
2022-08-26T16:00:20.974Z,26.93
2022-08-26T16:02:23.602Z,26.37
2022-08-26T16:04:26.826Z,26.25
2022-08-26T16:06:32.295Z,26.98
2022-08-26T16:08:36.508Z,25.38
2022-08-26T16:10:46.505Z,26.50
2022-08-26T16:12:51.994Z,27.32
2022-08-26T16:14:54.602Z,27.40
2022-08-26T16:17:00.327Z,25.95
2022-08-26T16:19:07.304Z,26.46
2022-08-26T16:21:14.809Z,26.14
2022-08-26T16:23:18.388Z,26.27
2022-08-26T16:25:21.081Z,27.60
2022-08-26T16:27:23.871Z,27.69
2022-08-26T16:29:26.929Z,27.01
2022-08-26T16:31:29.764Z,27.10
2022-08-26T16:33:32.465Z,26.89
2022-08-26T16:35:35.671Z,27.42
2022-08-26T16:37:39.407Z,27.55
2022-08-26T16:39:45.085Z,27.64
2022-08-26T16:41:47.924Z,27.93
2022-08-26T16:43:50.734Z,28.29
2022-08-26T16:45:53.422Z,28.64
2022-08-26T16:47:56.119Z,29.34
2022-08-26T16:49:58.804Z,30.33
2022-08-26T16:52:01.490Z,31.78
2022-08-26T16:54:04.658Z,32.07
2022-08-26T16:56:14.738Z,32.89
2022-08-26T16:58:18.603Z,34.19
2022-08-26T17:00:28.378Z,33.94
2022-08-26T17:02:31.046Z,33.09
2022-08-26T17:04:33.836Z,33.41
2022-08-26T17:06:36.492Z,33.63
2022-08-26T17:08:41.211Z,33.38
2022-08-26T17:10:43.926Z,33.09
2022-08-26T17:12:47.023Z,34.41
2022-08-26T17:14:49.772Z,33.70
2022-08-26T17:16:53.758Z,33.60
2022-08-26T17:18:58.336Z,34.21
2022-08-26T17:21:03.968Z,35.35
2022-08-26T17:23:06.726Z,35.27
2022-08-26T17:25:16.038Z,35.90
2022-08-26T17:27:18.624Z,35.68
2022-08-26T17:29:21.208Z,37.12
2022-08-26T17:31:24.543Z,36.42
2022-08-26T17:33:28.329Z,36.37
2022-08-26T17:35:30.979Z,36.37
2022-08-26T17:37:34.929Z,36.11
2022-08-26T17:39:44.063Z,37.20
2022-08-26T17:41:46.786Z,36.76
2022-08-26T17:43:49.781Z,37.08
2022-08-26T17:46:06.628Z,36.71
2022-08-26T17:48:11.411Z,37.27
2022-08-26T17:50:17.169Z,37.61
2022-08-26T17:52:19.872Z,37.75
2022-08-26T17:54:22.424Z,38.33
2022-08-26T17:56:28.953Z,38.21
2022-08-26T17:58:31.544Z,37.89
2022-08-26T18:00:37.352Z,37.81
2022-08-26T18:02:41.059Z,38.59
2022-08-26T18:04:43.957Z,38.67
2022-08-26T18:06:47.114Z,38.15
2022-08-26T18:08:50.435Z,38.14
2022-08-26T18:10:53.161Z,38.91
2022-08-26T18:12:55.817Z,39.46
2022-08-26T18:14:58.534Z,39.00
2022-08-26T18:17:01.899Z,39.28
2022-08-26T18:19:08.477Z,39.05
2022-08-26T18:21:17.107Z,39.02
2022-08-26T18:23:19.676Z,39.32
2022-08-26T18:25:22.470Z,39.58
2022-08-26T18:27:25.097Z,39.12
2022-08-26T18:29:28.081Z,39.00
2022-08-26T18:31:31.034Z,38.49
2022-08-26T18:33:33.834Z,38.33
2022-08-26T18:35:43.422Z,38.02
2022-08-26T18:37:46.229Z,38.68
2022-08-26T18:39:48.867Z,38.70
2022-08-26T18:41:53.436Z,39.64
2022-08-26T18:43:56.355Z,39.16
2022-08-26T18:46:03.950Z,39.56
2022-08-26T18:48:07.009Z,39.68
2022-08-26T18:50:11.078Z,38.89
2022-08-26T18:52:13.717Z,38.90
2022-08-26T18:54:17.010Z,38.43
2022-08-26T18:56:20.039Z,39.83
2022-08-26T18:58:22.907Z,39.34
2022-08-26T19:00:25.590Z,38.03
2022-08-26T19:02:28.484Z,38.62
2022-08-26T19:04:33.400Z,38.98
2022-08-26T19:06:36.513Z,38.89
2022-08-26T19:08:39.205Z,38.75
2022-08-26T19:10:47.666Z,38.45
2022-08-26T19:12:51.923Z,38.44
2022-08-26T19:14:55.128Z,39.33
2022-08-26T19:16:57.803Z,38.97
2022-08-26T19:19:01.623Z,39.85
2022-08-26T19:21:04.473Z,39.31
2022-08-26T19:23:28.108Z,38.41
2022-08-26T19:25:31.493Z,39.00
2022-08-26T19:27:34.096Z,39.01
2022-08-26T19:29:37.971Z,39.57
2022-08-26T19:31:41.577Z,38.87
2022-08-26T19:33:46.711Z,39.24
2022-08-26T19:35:49.432Z,38.37
2022-08-26T19:37:52.011Z,38.76
2022-08-26T19:39:54.625Z,38.75
2022-08-26T19:41:57.552Z,39.19
2022-08-26T19:44:04.706Z,39.06
2022-08-26T19:46:13.668Z,38.74
2022-08-26T19:48:16.424Z,38.99
2022-08-26T19:50:19.150Z,38.49
2022-08-26T19:52:23.400Z,38.53
2022-08-26T19:54:32.530Z,39.35
2022-08-26T19:56:35.205Z,38.92
2022-08-26T19:58:37.899Z,39.44
2022-08-26T20:00:42.580Z,38.20
2022-08-26T20:02:45.451Z,38.14
2022-08-26T20:04:48.348Z,38.39
2022-08-26T20:06:51.784Z,38.25
2022-08-26T20:09:00.778Z,38.45
2022-08-26T20:11:09.608Z,38.34
2022-08-26T20:13:12.411Z,39.04
2022-08-26T20:15:16.996Z,39.41
2022-08-26T20:17:19.720Z,38.77
2022-08-26T20:19:40.914Z,39.12
2022-08-26T20:21:44.386Z,38.64
2022-08-26T20:23:47.499Z,38.11
2022-08-26T20:25:50.192Z,38.68
2022-08-26T20:27:52.845Z,39.00
2022-08-26T20:29:56.467Z,37.57
2022-08-26T20:31:59.272Z,38.36
2022-08-26T20:34:02.803Z,37.59
2022-08-26T20:36:07.758Z,37.57
2022-08-26T20:38:10.747Z,37.49
2022-08-26T20:40:15.070Z,37.57
2022-08-26T20:42:20.372Z,37.75
2022-08-26T20:44:24.667Z,38.32
2022-08-26T20:46:27.943Z,38.33
2022-08-26T20:48:31.358Z,38.66
2022-08-26T20:50:34.395Z,38.89
2022-08-26T20:52:37.103Z,39.03
2022-08-26T20:54:40.616Z,39.24
2022-08-26T20:56:44.021Z,39.95
2022-08-26T20:58:47.213Z,39.95
2022-08-26T21:00:50.542Z,40.17
2022-08-26T21:02:53.913Z,40.56
2022-08-26T21:04:58.133Z,41.25
2022-08-26T21:07:01.229Z,41.47
2022-08-26T21:09:06.547Z,41.16
2022-08-26T21:11:09.731Z,41.23
2022-08-26T21:13:14.558Z,41.56
2022-08-26T21:15:17.711Z,41.77
2022-08-26T21:17:20.714Z,41.96
2022-08-26T21:19:23.976Z,42.40
2022-08-26T21:21:30.128Z,42.16
2022-08-26T21:23:33.741Z,42.49
2022-08-26T21:25:36.479Z,42.94
2022-08-26T21:27:39.261Z,43.51
2022-08-26T21:29:42.020Z,43.72
2022-08-26T21:31:46.754Z,44.13
2022-08-26T21:33:51.100Z,44.05
2022-08-26T21:35:54.387Z,44.00
2022-08-26T21:37:57.129Z,43.45
2022-08-26T21:40:02.184Z,43.87
2022-08-26T21:42:07.208Z,43.85
2022-08-26T21:44:10.932Z,43.61
2022-08-26T21:46:22.075Z,43.57
2022-08-26T21:48:25.095Z,43.06
2022-08-26T21:50:38.421Z,43.10
2022-08-26T21:52:41.062Z,43.00
2022-08-26T21:54:49.559Z,42.84
2022-08-26T21:56:52.820Z,42.99
2022-08-26T21:58:56.662Z,43.16
2022-08-26T22:00:59.617Z,43.48
2022-08-26T22:03:02.319Z,44.18
2022-08-26T22:05:05.437Z,44.52
2022-08-26T22:07:08.046Z,44.31
2022-08-26T22:09:11.814Z,44.88
2022-08-26T22:11:14.814Z,44.81
2022-08-26T22:13:22.432Z,44.85
2022-08-26T22:15:27.827Z,45.10
2022-08-26T22:17:30.527Z,45.04
2022-08-26T22:19:34.095Z,45.04
2022-08-26T22:21:53.695Z,45.59
2022-08-26T22:23:58.433Z,45.80
2022-08-26T22:26:01.485Z,45.78
2022-08-26T22:28:04.681Z,45.71
2022-08-26T22:30:07.785Z,45.70
2022-08-26T22:32:15.234Z,45.58
2022-08-26T22:34:19.764Z,45.49
2022-08-26T22:36:27.340Z,45.23
2022-08-26T22:38:30.600Z,44.57
2022-08-26T22:40:35.106Z,45.04
2022-08-26T22:42:38.699Z,44.66
2022-08-26T22:44:41.479Z,44.43
2022-08-26T22:46:45.473Z,44.17
2022-08-26T22:48:57.530Z,43.77
2022-08-26T22:51:00.436Z,43.58
2022-08-26T22:53:03.322Z,43.31
2022-08-26T22:55:06.733Z,43.21
2022-08-26T22:57:09.419Z,43.02
2022-08-26T22:59:13.020Z,42.81
2022-08-26T23:01:17.071Z,42.85
2022-08-26T23:03:19.948Z,42.92
2022-08-26T23:05:23.386Z,42.77
2022-08-26T23:07:26.056Z,42.83
2022-08-26T23:09:29.411Z,42.57
2022-08-26T23:11:32.518Z,42.79
2022-08-26T23:13:35.525Z,42.83
2022-08-26T23:15:42.305Z,43.14
2022-08-26T23:17:45.162Z,43.24
2022-08-26T23:19:47.861Z,43.21
2022-08-26T23:21:52.061Z,43.39
2022-08-26T23:23:54.651Z,43.50
2022-08-26T23:25:57.360Z,43.69
2022-08-26T23:28:01.926Z,43.75
2022-08-26T23:30:12.284Z,44.32
2022-08-26T23:32:14.952Z,44.42
2022-08-26T23:34:35.894Z,44.64
2022-08-26T23:36:38.767Z,44.77
2022-08-26T23:38:41.910Z,44.62
2022-08-26T23:40:44.604Z,44.60
2022-08-26T23:42:48.021Z,44.64
2022-08-26T23:44:50.802Z,44.88
2022-08-26T23:46:53.553Z,45.28
2022-08-26T23:48:56.174Z,44.87
2022-08-26T23:51:17.457Z,44.92
2022-08-26T23:53:22.481Z,45.78
2022-08-26T23:55:25.702Z,46.18
2022-08-26T23:57:28.339Z,46.65
2022-08-26T23:59:30.965Z,46.67
